Aikoumaru No.8 — JD3288 — position and weather

sailwx.info

Track history (hours):
 
Tides and Currents Weather Stations Pressure Air Temp Water Temp Dewpoint Dewpoint Depression Visibility Wind Speed Wind Dir Waves Ship Positions

Aikoumaru No.8

Last reported at 2015-May-27 18:29 UTC. Time now 2015-May-29 20:26 UTC.
Position N 34°04' E 135°00'.

Length 74 m; draft 4.5 m.

Type: Cargo ship. MMSI: 431003153.

Date/timePositionNaut miles runAvg speedWind from/ knotsBaromVisibWave heightAir tempDewpointWater temp
2015-May-27 18:29N 34°04' E 135°00'1111.7
2015-May-27 17:33N 34°15' E 134°59'1010.3
2015-May-27 16:33N 34°24' E 135°05'1111.4
2015-May-27 15:33N 34°31' E 135°16'9 9.5
2015-May-27 14:33N 34°35' E 135°26'1 1.1
2015-May-27 13:20N 34°34' E 135°27'0 0.0
2015-May-27 12:32N 34°34' E 135°27'0 0.0
2015-May-27 03:29N 34°34' E 135°27'0 0.0
2015-May-27 02:23N 34°34' E 135°27'0 0.0
2015-May-27 01:17N 34°34' E 135°27'0 0.0
2015-May-26 22:18N 34°34' E 135°27'2 0.1
2015-May-26 09:12N 34°35' E 135°28'0 0.0
2015-May-26 08:25N 34°35' E 135°28'0 0.0
2015-May-26 06:05N 34°35' E 135°28'0 0.0
2015-May-26 04:18N 34°35' E 135°28'0 0.0
2015-May-26 03:27N 34°35' E 135°28'7 7.6
2015-May-26 02:33N 34°34' E 135°20'1312.8
2015-May-26 01:33N 34°25' E 135°09'1212.0
2015-May-26 00:33N 34°14' E 135°03'9 0.2
2015-May-24 00:33N 34°05' E 135°02'1412.4
2015-May-23 23:24N 34°19' E 135°04'1112.4
2015-May-23 22:32N 34°28' E 135°12'1311.6
2015-May-23 21:26N 34°36' E 135°23'4 0.7
2015-May-23 16:12N 34°34' E 135°27'1 0.3
2015-May-23 10:32N 34°35' E 135°27'0 0.1
2015-May-23 07:04N 34°35' E 135°28'0 0.0
2015-May-23 06:33N 34°35' E 135°28'0 0.0
2015-May-23 05:32N 34°35' E 135°28'0 0.0
2015-May-23 04:19N 34°35' E 135°28'0 0.0
2015-May-23 02:25N 34°35' E 135°28'0 0.0
2015-May-23 01:12N 34°35' E 135°28'0 0.0
2015-May-23 00:31N 34°35' E 135°28'0 0.0
2015-May-22 23:32N 34°35' E 135°28'0 0.0
2015-May-22 22:25N 34°35' E 135°28'0 0.0
2015-May-22 21:33N 34°35' E 135°28'0 0.0
2015-May-22 20:31N 34°35' E 135°28'0 0.0
2015-May-22 19:33N 34°35' E 135°28'0 0.0
2015-May-22 18:21N 34°35' E 135°28'0 0.0
2015-May-22 17:27N 34°35' E 135°28'0 0.0
2015-May-22 11:11N 34°35' E 135°28'0 0.0
2015-May-22 10:32N 34°35' E 135°28'0 0.0
2015-May-22 09:31N 34°35' E 135°28'0 0.0
2015-May-22 08:24N 34°35' E 135°28'0 0.0
2015-May-22 07:22N 34°35' E 135°28'0 0.0
2015-May-22 06:13N 34°35' E 135°28'2 3.1
2015-May-22 05:33N 34°36' E 135°25'1211.6
2015-May-22 04:33N 34°29' E 135°14'1312.7
2015-May-22 03:34N 34°19' E 135°04'1312.7
2015-May-22 02:33N 34°06' E 135°02'  
2015-May-18 01:33N 34°08' E 134°59'1212.0
2015-May-18 00:32N 34°20' E 134°59'1111.3
2015-May-17 23:33N 34°31' E 135°02'8 6.3
2015-May-17 22:13N 34°37' E 134°54'  
Track history (hours):
 
Tides and Currents Weather Stations Pressure Air Temp Water Temp Dewpoint Dewpoint Depression Visibility Wind Speed Wind Dir Waves Ship Positions

Aikoumaru No.8

Last reported at 2015-May-27 18:29 UTC. Time now 2015-May-29 20:26 UTC.
Position N 34°04' E 135°00'.

Length 74 m; draft 4.5 m.

Type: Cargo ship. MMSI: 431003153.

Date/timePositionNaut miles runAvg speedWind from/ knotsBaromVisibWave heightAir tempDewpointWater temp
2015-May-27 18:29N 34°04' E 135°00'1111.7
2015-May-27 17:33N 34°15' E 134°59'1010.3
2015-May-27 16:33N 34°24' E 135°05'1111.4
2015-May-27 15:33N 34°31' E 135°16'9 9.5
2015-May-27 14:33N 34°35' E 135°26'1 1.1
2015-May-27 13:20N 34°34' E 135°27'0 0.0
2015-May-27 12:32N 34°34' E 135°27'0 0.0
2015-May-27 03:29N 34°34' E 135°27'0 0.0
2015-May-27 02:23N 34°34' E 135°27'0 0.0
2015-May-27 01:17N 34°34' E 135°27'0 0.0
2015-May-26 22:18N 34°34' E 135°27'2 0.1
2015-May-26 09:12N 34°35' E 135°28'0 0.0
2015-May-26 08:25N 34°35' E 135°28'0 0.0
2015-May-26 06:05N 34°35' E 135°28'0 0.0
2015-May-26 04:18N 34°35' E 135°28'0 0.0
2015-May-26 03:27N 34°35' E 135°28'7 7.6
2015-May-26 02:33N 34°34' E 135°20'1312.8
2015-May-26 01:33N 34°25' E 135°09'1212.0
2015-May-26 00:33N 34°14' E 135°03'9 0.2
2015-May-24 00:33N 34°05' E 135°02'1412.4
2015-May-23 23:24N 34°19' E 135°04'1112.4
2015-May-23 22:32N 34°28' E 135°12'1311.6
2015-May-23 21:26N 34°36' E 135°23'4 0.7
2015-May-23 16:12N 34°34' E 135°27'1 0.3
2015-May-23 10:32N 34°35' E 135°27'0 0.1
2015-May-23 07:04N 34°35' E 135°28'0 0.0
2015-May-23 06:33N 34°35' E 135°28'0 0.0
2015-May-23 05:32N 34°35' E 135°28'0 0.0
2015-May-23 04:19N 34°35' E 135°28'0 0.0
2015-May-23 02:25N 34°35' E 135°28'0 0.0
2015-May-23 01:12N 34°35' E 135°28'0 0.0
2015-May-23 00:31N 34°35' E 135°28'0 0.0
2015-May-22 23:32N 34°35' E 135°28'0 0.0
2015-May-22 22:25N 34°35' E 135°28'0 0.0
2015-May-22 21:33N 34°35' E 135°28'0 0.0
2015-May-22 20:31N 34°35' E 135°28'0 0.0
2015-May-22 19:33N 34°35' E 135°28'0 0.0
2015-May-22 18:21N 34°35' E 135°28'0 0.0
2015-May-22 17:27N 34°35' E 135°28'0 0.0
2015-May-22 11:11N 34°35' E 135°28'0 0.0
2015-May-22 10:32N 34°35' E 135°28'0 0.0
2015-May-22 09:31N 34°35' E 135°28'0 0.0
2015-May-22 08:24N 34°35' E 135°28'0 0.0
2015-May-22 07:22N 34°35' E 135°28'0 0.0
2015-May-22 06:13N 34°35' E 135°28'2 3.1
2015-May-22 05:33N 34°36' E 135°25'1211.6
2015-May-22 04:33N 34°29' E 135°14'1312.7
2015-May-22 03:34N 34°19' E 135°04'1312.7
2015-May-22 02:33N 34°06' E 135°02'  
2015-May-18 01:33N 34°08' E 134°59'1212.0
2015-May-18 00:32N 34°20' E 134°59'1111.3
2015-May-17 23:33N 34°31' E 135°02'8 6.3
2015-May-17 22:13N 34°37' E 134°54'  

Dump ship's entire track history